CPA773 VHHH-RJBB
Flight info
| Callsign | CPA773 |
|---|---|
| Flight time | N/A |
| Altitude | 37000 |
| Route | DALOL V631 ENVAR M750 MADOG Y53 NIXOV |
| Aircraft | B77W/H-SDE1E2E3FGHIJ2J3J4J5M1RWXY/LB1D1 |
Departure
| Time | 2026-05-06 11:18 |
|---|---|
| Airport | Hong Kong International Airport (VHHH) |
Arrival
| Time | N/A |
|---|---|
| Airport | Kansai International Airport (RJBB) |
| Time | Latitude | Longitude | Altitude | Speed | Heading |
|---|---|---|---|---|---|
| 2026-05-06 10:29 | 22.31275 | 113.92906 | 42 ft | 0 kts | 340° |
| 2026-05-06 11:06 | 22.31257 | 113.92914 | 40 ft | 4 kts | 336° |
| 2026-05-06 11:06 | 22.31234 | 113.92926 | 38 ft | 3 kts | 326° |
| 2026-05-06 11:07 | 22.31216 | 113.92942 | 38 ft | 3 kts | 307° |
| 2026-05-06 11:07 | 22.31207 | 113.92961 | 39 ft | 3 kts | 276° |
| 2026-05-06 11:07 | 22.31207 | 113.92981 | 39 ft | 2 kts | 257° |
| 2026-05-06 11:07 | 22.31210 | 113.92993 | 42 ft | 2 kts | 252° |
| 2026-05-06 11:08 | 22.31213 | 113.93003 | 40 ft | 0 kts | 250° |
| 2026-05-06 11:09 | 22.31213 | 113.93001 | 40 ft | 1 kts | 250° |
| 2026-05-06 11:09 | 22.31208 | 113.92987 | 42 ft | 4 kts | 251° |
| 2026-05-06 11:10 | 22.31194 | 113.92944 | 42 ft | 10 kts | 251° |
| 2026-05-06 11:10 | 22.31157 | 113.92881 | 42 ft | 10 kts | 208° |
| 2026-05-06 11:10 | 22.31092 | 113.92847 | 42 ft | 11 kts | 206° |
| 2026-05-06 11:10 | 22.31015 | 113.92806 | 42 ft | 13 kts | 206° |
| 2026-05-06 11:11 | 22.30932 | 113.92763 | 42 ft | 13 kts | 206° |
| 2026-05-06 11:11 | 22.30850 | 113.92717 | 42 ft | 13 kts | 218° |
| 2026-05-06 11:11 | 22.30815 | 113.92628 | 42 ft | 13 kts | 250° |
| 2026-05-06 11:11 | 22.30785 | 113.92535 | 42 ft | 14 kts | 250° |
| 2026-05-06 11:12 | 22.30749 | 113.92426 | 42 ft | 18 kts | 250° |
| 2026-05-06 11:12 | 22.30698 | 113.92268 | 42 ft | 26 kts | 251° |
| 2026-05-06 11:12 | 22.30632 | 113.92063 | 42 ft | 30 kts | 251° |
| 2026-05-06 11:12 | 22.30563 | 113.91850 | 42 ft | 31 kts | 251° |
| 2026-05-06 11:13 | 22.30516 | 113.91704 | 42 ft | 31 kts | 251° |
| 2026-05-06 11:13 | 22.30422 | 113.91411 | 42 ft | 31 kts | 251° |
| 2026-05-06 11:13 | 22.30349 | 113.91189 | 42 ft | 32 kts | 250° |
| 2026-05-06 11:13 | 22.30277 | 113.90964 | 42 ft | 32 kts | 250° |
| 2026-05-06 11:14 | 22.30214 | 113.90768 | 42 ft | 18 kts | 251° |
| 2026-05-06 11:14 | 22.30186 | 113.90682 | 42 ft | 18 kts | 251° |
| 2026-05-06 11:14 | 22.30131 | 113.90511 | 41 ft | 18 kts | 250° |
| 2026-05-06 11:14 | 22.30102 | 113.90424 | 41 ft | 18 kts | 250° |
| 2026-05-06 11:15 | 22.30061 | 113.90295 | 41 ft | 18 kts | 251° |
| 2026-05-06 11:15 | 22.30019 | 113.90166 | 41 ft | 18 kts | 251° |
| 2026-05-06 11:15 | 22.29977 | 113.90037 | 41 ft | 18 kts | 251° |
| 2026-05-06 11:15 | 22.29923 | 113.89866 | 41 ft | 18 kts | 251° |
| 2026-05-06 11:16 | 22.29896 | 113.89785 | 42 ft | 16 kts | 251° |
| 2026-05-06 11:16 | 22.29845 | 113.89730 | 42 ft | 10 kts | 186° |
| 2026-05-06 11:16 | 22.29776 | 113.89754 | 42 ft | 11 kts | 160° |
| 2026-05-06 11:16 | 22.29705 | 113.89781 | 42 ft | 11 kts | 161° |
| 2026-05-06 11:17 | 22.29654 | 113.89833 | 42 ft | 11 kts | 113° |
| 2026-05-06 11:17 | 22.29659 | 113.89912 | 42 ft | 11 kts | 71° |
| 2026-05-06 11:17 | 22.29709 | 113.90070 | 41 ft | 44 kts | 71° |
| 2026-05-06 11:17 | 22.29900 | 113.90662 | 41 ft | 122 kts | 70° |
| 2026-05-06 11:18 | 22.30230 | 113.91761 | 49 ft | 181 kts | 75° |
| 2026-05-06 11:18 | 22.30597 | 113.93101 | 682 ft | 185 kts | 73° |
| 2026-05-06 11:18 | 22.31007 | 113.94422 | 1532 ft | 185 kts | 71° |
| 2026-05-06 11:18 | 22.31436 | 113.95727 | 2262 ft | 191 kts | 71° |
| 2026-05-06 11:19 | 22.31928 | 113.97172 | 2499 ft | 219 kts | 72° |
| 2026-05-06 11:19 | 22.32487 | 113.98836 | 2723 ft | 250 kts | 71° |
| 2026-05-06 11:19 | 22.33092 | 114.00653 | 3344 ft | 263 kts | 72° |
| 2026-05-06 11:19 | 22.33701 | 114.02547 | 4071 ft | 270 kts | 76° |
| 2026-05-06 11:20 | 22.33852 | 114.04586 | 4710 ft | 277 kts | 102° |
| 2026-05-06 11:20 | 22.33146 | 114.06496 | 5578 ft | 275 kts | 127° |
| 2026-05-06 11:20 | 22.31783 | 114.07933 | 6355 ft | 277 kts | 151° |
| 2026-05-06 11:20 | 22.29985 | 114.08636 | 7099 ft | 277 kts | 174° |
| 2026-05-06 11:21 | 22.28056 | 114.08734 | 7869 ft | 279 kts | 182° |
| 2026-05-06 11:21 | 22.26096 | 114.08730 | 8630 ft | 284 kts | 182° |
| 2026-05-06 11:21 | 22.24133 | 114.08714 | 9415 ft | 288 kts | 183° |
| 2026-05-06 11:21 | 22.22092 | 114.08681 | 10170 ft | 292 kts | 183° |
| 2026-05-06 11:22 | 22.20024 | 114.08650 | 10560 ft | 313 kts | 183° |
| 2026-05-06 11:22 | 22.17757 | 114.08836 | 10692 ft | 340 kts | 166° |
| 2026-05-06 11:22 | 22.15614 | 114.10054 | 10879 ft | 371 kts | 140° |
| 2026-05-06 11:22 | 22.14035 | 114.12329 | 11216 ft | 390 kts | 118° |
| 2026-05-06 11:23 | 22.12857 | 114.15021 | 11787 ft | 402 kts | 116° |
| 2026-05-06 11:23 | 22.11670 | 114.17785 | 12588 ft | 409 kts | 116° |
| 2026-05-06 11:23 | 22.10416 | 114.20547 | 13475 ft | 414 kts | 118° |
| 2026-05-06 11:23 | 22.09191 | 114.23145 | 14185 ft | 420 kts | 118° |
| 2026-05-06 11:24 | 22.07747 | 114.25879 | 14794 ft | 423 kts | 128° |
| 2026-05-06 11:24 | 22.05631 | 114.28062 | 15371 ft | 420 kts | 148° |
| 2026-05-06 11:24 | 22.03190 | 114.29842 | 15985 ft | 427 kts | 148° |
| 2026-05-06 11:24 | 22.00741 | 114.31700 | 16728 ft | 432 kts | 147° |
| 2026-05-06 11:25 | 21.98297 | 114.33616 | 17520 ft | 436 kts | 147° |
| 2026-05-06 11:25 | 21.95845 | 114.35555 | 18254 ft | 440 kts | 147° |
| 2026-05-06 11:25 | 21.93358 | 114.37522 | 18856 ft | 446 kts | 147° |
| 2026-05-06 11:25 | 21.90849 | 114.39500 | 19463 ft | 450 kts | 147° |
| 2026-05-06 11:26 | 21.89612 | 114.40474 | 19788 ft | 451 kts | 147° |
| 2026-05-06 11:26 | 21.87494 | 114.42146 | 20304 ft | 452 kts | 146° |
| 2026-05-06 11:26 | 21.85241 | 114.44559 | 20717 ft | 466 kts | 128° |
| 2026-05-06 11:26 | 21.83745 | 114.47692 | 21228 ft | 477 kts | 109° |
| 2026-05-06 11:27 | 21.82882 | 114.51130 | 21755 ft | 479 kts | 106° |
| 2026-05-06 11:27 | 21.82049 | 114.54624 | 22271 ft | 485 kts | 106° |
| 2026-05-06 11:27 | 21.81194 | 114.58150 | 22848 ft | 489 kts | 106° |
| 2026-05-06 11:27 | 21.80310 | 114.61700 | 23417 ft | 493 kts | 107° |
| 2026-05-06 11:28 | 21.79401 | 114.65270 | 23900 ft | 496 kts | 107° |
| 2026-05-06 11:28 | 21.78476 | 114.68860 | 24354 ft | 500 kts | 107° |
| 2026-05-06 11:28 | 21.77538 | 114.72478 | 24808 ft | 504 kts | 107° |
| 2026-05-06 11:28 | 21.76594 | 114.76121 | 25248 ft | 508 kts | 107° |
| 2026-05-06 11:29 | 21.75644 | 114.79791 | 25695 ft | 511 kts | 107° |
| 2026-05-06 11:29 | 21.74695 | 114.83483 | 26125 ft | 514 kts | 105° |
| 2026-05-06 11:29 | 21.74101 | 114.87222 | 26503 ft | 520 kts | 94° |
| 2026-05-06 11:29 | 21.74055 | 114.90577 | 26881 ft | 522 kts | 89° |
| 2026-05-06 11:30 | 21.74160 | 114.94476 | 27349 ft | 524 kts | 88° |
| 2026-05-06 11:30 | 21.74278 | 114.98413 | 27759 ft | 528 kts | 88° |
| 2026-05-06 11:30 | 21.74352 | 115.02376 | 28138 ft | 532 kts | 89° |
| 2026-05-06 11:30 | 21.74373 | 115.06365 | 28511 ft | 535 kts | 90° |
| 2026-05-06 11:31 | 21.74359 | 115.10378 | 28893 ft | 538 kts | 90° |
| 2026-05-06 11:31 | 21.74332 | 115.14407 | 29254 ft | 540 kts | 90° |
| 2026-05-06 11:31 | 21.74309 | 115.18455 | 29596 ft | 543 kts | 90° |
| 2026-05-06 11:31 | 21.74293 | 115.22525 | 29919 ft | 546 kts | 90° |
| 2026-05-06 11:32 | 21.74284 | 115.26613 | 30298 ft | 546 kts | 90° |
| 2026-05-06 11:32 | 21.74277 | 115.30679 | 30716 ft | 544 kts | 90° |
| 2026-05-06 11:32 | 21.74270 | 115.34752 | 31161 ft | 543 kts | 90° |
| 2026-05-06 11:32 | 21.74262 | 115.38677 | 31575 ft | 541 kts | 90° |
| 2026-05-06 11:33 | 21.74252 | 115.42722 | 32018 ft | 540 kts | 90° |
| 2026-05-06 11:33 | 21.74240 | 115.46698 | 32443 ft | 539 kts | 90° |
| 2026-05-06 11:33 | 21.74227 | 115.50723 | 32846 ft | 538 kts | 90° |
| 2026-05-06 11:33 | 21.74213 | 115.54748 | 33258 ft | 537 kts | 90° |
| 2026-05-06 11:34 | 21.74198 | 115.58753 | 33703 ft | 536 kts | 90° |
| 2026-05-06 11:34 | 21.74184 | 115.62756 | 34103 ft | 534 kts | 90° |
| 2026-05-06 11:34 | 21.74170 | 115.66748 | 34450 ft | 534 kts | 90° |
| 2026-05-06 11:34 | 21.74155 | 115.70738 | 34783 ft | 533 kts | 89° |
| 2026-05-06 11:35 | 21.74140 | 115.74725 | 35124 ft | 532 kts | 89° |
| 2026-05-06 11:35 | 21.74124 | 115.78697 | 35465 ft | 531 kts | 89° |
| 2026-05-06 11:35 | 21.74107 | 115.82657 | 35796 ft | 530 kts | 89° |
| 2026-05-06 11:35 | 21.74089 | 115.86619 | 36105 ft | 530 kts | 89° |
| 2026-05-06 11:36 | 21.74070 | 115.90586 | 36435 ft | 529 kts | 89° |
| 2026-05-06 11:36 | 21.74049 | 115.94531 | 36740 ft | 528 kts | 89° |
| 2026-05-06 11:36 | 21.74028 | 115.98484 | 36909 ft | 531 kts | 89° |
| 2026-05-06 11:37 | 21.73983 | 116.06453 | 36950 ft | 533 kts | 89° |
| 2026-05-06 11:37 | 21.73934 | 116.14369 | 36951 ft | 526 kts | 89° |
| 2026-05-06 11:38 | 21.73882 | 116.22222 | 36959 ft | 524 kts | 89° |
| 2026-05-06 11:38 | 21.73826 | 116.30061 | 36970 ft | 524 kts | 89° |
| 2026-05-06 11:39 | 21.73767 | 116.37898 | 36975 ft | 524 kts | 89° |
| 2026-05-06 11:39 | 21.73704 | 116.45745 | 36974 ft | 525 kts | 89° |
| 2026-05-06 11:40 | 21.73637 | 116.53606 | 36971 ft | 526 kts | 90° |
| 2026-05-06 11:40 | 21.73566 | 116.61485 | 36972 ft | 527 kts | 90° |
| 2026-05-06 11:41 | 21.73492 | 116.69371 | 36971 ft | 528 kts | 90° |
| 2026-05-06 11:41 | 21.73866 | 116.77230 | 36975 ft | 526 kts | 79° |
| 2026-05-06 11:42 | 21.75581 | 116.84845 | 36972 ft | 522 kts | 68° |
| 2026-05-06 11:42 | 21.78227 | 116.92107 | 36976 ft | 521 kts | 65° |
| 2026-05-06 11:43 | 21.80942 | 116.99354 | 36972 ft | 522 kts | 66° |
| 2026-05-06 11:43 | 21.83603 | 117.06621 | 36975 ft | 522 kts | 66° |
| 2026-05-06 11:44 | 21.87491 | 117.17406 | 36974 ft | 521 kts | 66° |
| 2026-05-06 11:44 | 21.90109 | 117.24681 | 36973 ft | 521 kts | 66° |
| 2026-05-06 11:45 | 21.92728 | 117.31959 | 36975 ft | 521 kts | 66° |
| 2026-05-06 11:45 | 21.95342 | 117.39235 | 36970 ft | 521 kts | 66° |
| 2026-05-06 11:46 | 21.97897 | 117.46359 | 36974 ft | 520 kts | 66° |
| 2026-05-06 11:46 | 22.00978 | 117.53376 | 36969 ft | 516 kts | 56° |
| 2026-05-06 11:47 | 22.04748 | 117.59942 | 36976 ft | 515 kts | 55° |
| 2026-05-06 11:47 | 22.08541 | 117.66504 | 36975 ft | 516 kts | 55° |
| 2026-05-06 11:48 | 22.12287 | 117.73097 | 36970 ft | 516 kts | 56° |
| 2026-05-06 11:48 | 22.16012 | 117.79707 | 36974 ft | 516 kts | 56° |
| 2026-05-06 11:49 | 22.19740 | 117.86326 | 36979 ft | 516 kts | 56° |
| 2026-05-06 11:49 | 22.23464 | 117.92942 | 36974 ft | 516 kts | 56° |
| 2026-05-06 11:50 | 22.27187 | 117.99562 | 36980 ft | 516 kts | 56° |
| 2026-05-06 11:50 | 22.30977 | 118.06132 | 36978 ft | 515 kts | 54° |
| 2026-05-06 11:51 | 22.34805 | 118.12616 | 36961 ft | 508 kts | 54° |
| 2026-05-06 11:51 | 22.38570 | 118.19044 | 36974 ft | 506 kts | 54° |
| 2026-05-06 11:52 | 22.42272 | 118.25447 | 36984 ft | 506 kts | 55° |
| 2026-05-06 11:52 | 22.45938 | 118.31946 | 36979 ft | 507 kts | 55° |
| 2026-05-06 11:53 | 22.49607 | 118.38459 | 36976 ft | 507 kts | 55° |
| 2026-05-06 11:53 | 22.53287 | 118.44973 | 36981 ft | 508 kts | 55° |
| 2026-05-06 11:54 | 22.56977 | 118.51508 | 36980 ft | 509 kts | 55° |
| 2026-05-06 11:54 | 22.60692 | 118.58037 | 36983 ft | 510 kts | 55° |
| 2026-05-06 11:55 | 22.64420 | 118.64557 | 36977 ft | 510 kts | 55° |
| 2026-05-06 11:55 | 22.68150 | 118.71096 | 36983 ft | 510 kts | 55° |
| 2026-05-06 11:56 | 22.71871 | 118.77638 | 36976 ft | 510 kts | 55° |
| 2026-05-06 11:56 | 22.75583 | 118.84176 | 36978 ft | 509 kts | 55° |
| 2026-05-06 11:57 | 22.79291 | 118.90713 | 36975 ft | 509 kts | 55° |
| 2026-05-06 11:57 | 22.82986 | 118.97235 | 36979 ft | 508 kts | 55° |
| 2026-05-06 11:58 | 22.86682 | 119.03767 | 36983 ft | 508 kts | 55° |
| 2026-05-06 11:58 | 22.90372 | 119.10297 | 36979 ft | 507 kts | 55° |
| 2026-05-06 11:59 | 22.94035 | 119.16786 | 36982 ft | 507 kts | 55° |
| 2026-05-06 11:59 | 22.97738 | 119.23356 | 36970 ft | 507 kts | 55° |
| 2026-05-06 12:00 | 23.01387 | 119.29838 | 36970 ft | 507 kts | 55° |
| 2026-05-06 12:00 | 23.05057 | 119.36364 | 36977 ft | 507 kts | 55° |
| 2026-05-06 12:01 | 23.08729 | 119.42905 | 36975 ft | 507 kts | 55° |
| 2026-05-06 12:01 | 23.12393 | 119.49439 | 36973 ft | 507 kts | 55° |
| 2026-05-06 12:02 | 23.16058 | 119.55982 | 36972 ft | 507 kts | 55° |
| 2026-05-06 12:02 | 23.19724 | 119.62537 | 36971 ft | 507 kts | 55° |
| 2026-05-06 12:03 | 23.22766 | 119.67989 | 36972 ft | 507 kts | 55° |
| 2026-05-06 12:03 | 23.26444 | 119.74589 | 36966 ft | 507 kts | 55° |
| 2026-05-06 12:04 | 23.30103 | 119.81163 | 36958 ft | 508 kts | 55° |
| 2026-05-06 12:04 | 23.33730 | 119.87687 | 36952 ft | 508 kts | 55° |
| 2026-05-06 12:05 | 23.37832 | 119.93872 | 36967 ft | 501 kts | 45° |
| 2026-05-06 12:05 | 23.42743 | 119.99188 | 36982 ft | 497 kts | 39° |
| 2026-05-06 12:06 | 23.47817 | 120.04314 | 36971 ft | 498 kts | 38° |
| 2026-05-06 12:06 | 23.52870 | 120.09470 | 36971 ft | 498 kts | 39° |
| 2026-05-06 12:07 | 23.57902 | 120.14661 | 36968 ft | 498 kts | 39° |
| 2026-05-06 12:07 | 23.62932 | 120.19868 | 36971 ft | 498 kts | 39° |
| 2026-05-06 12:08 | 23.67960 | 120.25078 | 36973 ft | 498 kts | 39° |
| 2026-05-06 12:08 | 23.72988 | 120.30290 | 36968 ft | 498 kts | 39° |
| 2026-05-06 12:09 | 23.78010 | 120.35501 | 36969 ft | 498 kts | 39° |
| 2026-05-06 12:09 | 23.83031 | 120.40719 | 36974 ft | 498 kts | 39° |
| 2026-05-06 12:10 | 23.88058 | 120.45947 | 36975 ft | 499 kts | 39° |
| 2026-05-06 12:10 | 23.93071 | 120.51177 | 36973 ft | 499 kts | 39° |
| 2026-05-06 12:11 | 23.98071 | 120.56448 | 36980 ft | 499 kts | 39° |
| 2026-05-06 12:11 | 24.03066 | 120.61728 | 36984 ft | 499 kts | 39° |
| 2026-05-06 12:12 | 24.08065 | 120.67015 | 36988 ft | 500 kts | 39° |
| 2026-05-06 12:12 | 24.13059 | 120.72297 | 36988 ft | 500 kts | 39° |
| 2026-05-06 12:13 | 24.18029 | 120.77558 | 36988 ft | 500 kts | 39° |
| 2026-05-06 12:13 | 24.23062 | 120.82894 | 36985 ft | 501 kts | 39° |
| 2026-05-06 12:14 | 24.28069 | 120.88209 | 37000 ft | 501 kts | 39° |
| 2026-05-06 12:14 | 24.33033 | 120.93485 | 37012 ft | 501 kts | 39° |
| 2026-05-06 12:15 | 24.38028 | 120.98800 | 37039 ft | 501 kts | 39° |
| 2026-05-06 12:15 | 24.42908 | 121.04290 | 37032 ft | 505 kts | 46° |
| 2026-05-06 12:16 | 24.47295 | 121.10327 | 37054 ft | 506 kts | 48° |
| 2026-05-06 12:16 | 24.51655 | 121.16428 | 37054 ft | 508 kts | 48° |
| 2026-05-06 12:17 | 24.56029 | 121.22511 | 37050 ft | 507 kts | 47° |
| 2026-05-06 12:17 | 24.60417 | 121.28570 | 37048 ft | 507 kts | 47° |
| 2026-05-06 12:18 | 24.64798 | 121.34621 | 37037 ft | 506 kts | 47° |
| 2026-05-06 12:18 | 24.69177 | 121.40680 | 37028 ft | 505 kts | 47° |
| 2026-05-06 12:19 | 24.73543 | 121.46732 | 37010 ft | 504 kts | 47° |
| 2026-05-06 12:19 | 24.77891 | 121.52769 | 37005 ft | 502 kts | 47° |
| 2026-05-06 12:20 | 24.82225 | 121.58791 | 36992 ft | 502 kts | 47° |
| 2026-05-06 12:20 | 24.86562 | 121.64825 | 36992 ft | 503 kts | 47° |
| 2026-05-06 12:21 | 24.90922 | 121.70870 | 36981 ft | 504 kts | 46° |
| 2026-05-06 12:21 | 24.95494 | 121.76715 | 36988 ft | 503 kts | 44° |
| 2026-05-06 12:22 | 25.00125 | 121.82510 | 36988 ft | 504 kts | 44° |
| 2026-05-06 12:22 | 25.04720 | 121.88354 | 36994 ft | 505 kts | 45° |
| 2026-05-06 12:23 | 25.09297 | 121.94223 | 36999 ft | 504 kts | 45° |
| 2026-05-06 12:23 | 25.13838 | 122.00046 | 37007 ft | 504 kts | 45° |
| 2026-05-06 12:24 | 25.18393 | 122.05929 | 37002 ft | 504 kts | 45° |
| 2026-05-06 12:24 | 25.22928 | 122.11813 | 37003 ft | 503 kts | 45° |
| 2026-05-06 12:25 | 25.27462 | 122.17699 | 37008 ft | 503 kts | 45° |
| 2026-05-06 12:25 | 25.31991 | 122.23583 | 37001 ft | 503 kts | 45° |
| 2026-05-06 12:26 | 25.36524 | 122.29479 | 37002 ft | 503 kts | 45° |
| 2026-05-06 12:26 | 25.41052 | 122.35375 | 37002 ft | 503 kts | 45° |
| 2026-05-06 12:27 | 25.45572 | 122.41271 | 37003 ft | 503 kts | 45° |
| 2026-05-06 12:27 | 25.50095 | 122.47175 | 37003 ft | 503 kts | 45° |
| 2026-05-06 12:28 | 25.54625 | 122.53072 | 37002 ft | 503 kts | 45° |
| 2026-05-06 12:28 | 25.59165 | 122.58959 | 37004 ft | 503 kts | 45° |
| 2026-05-06 12:29 | 25.63703 | 122.64854 | 37006 ft | 503 kts | 45° |
| 2026-05-06 12:29 | 25.68232 | 122.70751 | 37005 ft | 503 kts | 45° |
| 2026-05-06 12:30 | 25.72761 | 122.76658 | 37007 ft | 502 kts | 45° |
| 2026-05-06 12:30 | 25.77284 | 122.82564 | 37006 ft | 502 kts | 45° |
| 2026-05-06 12:31 | 25.81804 | 122.88475 | 37006 ft | 502 kts | 45° |
| 2026-05-06 12:31 | 25.86320 | 122.94387 | 37007 ft | 502 kts | 45° |
| 2026-05-06 12:32 | 25.90803 | 123.00262 | 37008 ft | 502 kts | 45° |
| 2026-05-06 12:32 | 25.95306 | 123.06177 | 37000 ft | 501 kts | 45° |
| 2026-05-06 12:33 | 25.99803 | 123.12094 | 37005 ft | 501 kts | 45° |
| 2026-05-06 12:33 | 26.04294 | 123.18014 | 37021 ft | 500 kts | 45° |
| 2026-05-06 12:34 | 26.08780 | 123.23934 | 37012 ft | 500 kts | 45° |
| 2026-05-06 12:34 | 26.13257 | 123.29849 | 37012 ft | 500 kts | 45° |
| 2026-05-06 12:35 | 26.17732 | 123.35770 | 37018 ft | 500 kts | 45° |
| 2026-05-06 12:35 | 26.22203 | 123.41692 | 37014 ft | 499 kts | 45° |
| 2026-05-06 12:36 | 26.26666 | 123.47612 | 37012 ft | 499 kts | 45° |
| 2026-05-06 12:36 | 26.31127 | 123.53537 | 37011 ft | 499 kts | 45° |
| 2026-05-06 12:37 | 26.35581 | 123.59462 | 37020 ft | 498 kts | 45° |
| 2026-05-06 12:37 | 26.40032 | 123.65389 | 37016 ft | 498 kts | 45° |
| 2026-05-06 12:38 | 26.44473 | 123.71311 | 37022 ft | 498 kts | 45° |
| 2026-05-06 12:38 | 26.48912 | 123.77239 | 37023 ft | 497 kts | 45° |
| 2026-05-06 12:39 | 26.53316 | 123.83127 | 37018 ft | 497 kts | 45° |
| 2026-05-06 12:39 | 26.57768 | 123.89089 | 37021 ft | 496 kts | 45° |
| 2026-05-06 12:40 | 26.62158 | 123.94974 | 37024 ft | 496 kts | 45° |
| 2026-05-06 12:40 | 26.66572 | 124.00899 | 37023 ft | 496 kts | 45° |
| 2026-05-06 12:41 | 26.70986 | 124.06812 | 37024 ft | 495 kts | 45° |
| 2026-05-06 12:41 | 26.75403 | 124.12732 | 37033 ft | 495 kts | 45° |
| 2026-05-06 12:42 | 26.79575 | 124.18333 | 37027 ft | 495 kts | 45° |
| 2026-05-06 12:42 | 26.83971 | 124.24246 | 37032 ft | 494 kts | 45° |
| 2026-05-06 12:43 | 26.88367 | 124.30165 | 37031 ft | 494 kts | 45° |
| 2026-05-06 12:43 | 26.92760 | 124.36090 | 37028 ft | 494 kts | 45° |
| 2026-05-06 12:44 | 26.97147 | 124.42015 | 37031 ft | 493 kts | 44° |
| 2026-05-06 12:44 | 27.01533 | 124.47930 | 37035 ft | 493 kts | 44° |
| 2026-05-06 12:45 | 27.05914 | 124.53832 | 37019 ft | 492 kts | 44° |
| 2026-05-06 12:46 | 27.12437 | 124.62638 | 37025 ft | 491 kts | 44° |
| 2026-05-06 12:46 | 27.16799 | 124.68540 | 37027 ft | 490 kts | 44° |
| 2026-05-06 12:47 | 27.21150 | 124.74436 | 37031 ft | 490 kts | 44° |
| 2026-05-06 12:47 | 27.25492 | 124.80327 | 37030 ft | 489 kts | 44° |
| 2026-05-06 12:48 | 27.29832 | 124.86223 | 37030 ft | 489 kts | 44° |
| 2026-05-06 12:48 | 27.34162 | 124.92115 | 37031 ft | 488 kts | 44° |
| 2026-05-06 12:49 | 27.38487 | 124.98007 | 37035 ft | 488 kts | 44° |
| 2026-05-06 12:49 | 27.42815 | 125.03882 | 37036 ft | 487 kts | 44° |
| 2026-05-06 12:50 | 27.47153 | 125.09726 | 37036 ft | 487 kts | 44° |
| 2026-05-06 12:50 | 27.51494 | 125.15577 | 37033 ft | 486 kts | 44° |
| 2026-05-06 12:51 | 27.55817 | 125.21421 | 37035 ft | 486 kts | 44° |
| 2026-05-06 12:51 | 27.60111 | 125.27239 | 37037 ft | 485 kts | 44° |
| 2026-05-06 12:52 | 27.64424 | 125.33090 | 37032 ft | 485 kts | 44° |
| 2026-05-06 12:52 | 27.68734 | 125.38946 | 37033 ft | 485 kts | 44° |
| 2026-05-06 12:53 | 27.73035 | 125.44796 | 37035 ft | 484 kts | 44° |
| 2026-05-06 12:53 | 27.76637 | 125.49702 | 37035 ft | 484 kts | 44° |
| 2026-05-06 12:54 | 27.80935 | 125.55564 | 37031 ft | 484 kts | 44° |
| 2026-05-06 12:54 | 27.85196 | 125.61383 | 37033 ft | 484 kts | 44° |
| 2026-05-06 12:55 | 27.89482 | 125.67244 | 37033 ft | 483 kts | 44° |
| 2026-05-06 12:55 | 27.93760 | 125.73102 | 37034 ft | 483 kts | 44° |
| 2026-05-06 12:56 | 27.98037 | 125.78966 | 37036 ft | 483 kts | 44° |
| 2026-05-06 12:56 | 28.02306 | 125.84829 | 37033 ft | 482 kts | 44° |
| 2026-05-06 12:57 | 28.06571 | 125.90692 | 37032 ft | 482 kts | 45° |
| 2026-05-06 12:57 | 28.10826 | 125.96551 | 37033 ft | 481 kts | 44° |
| 2026-05-06 12:58 | 28.15075 | 126.02410 | 37034 ft | 481 kts | 45° |
| 2026-05-06 12:58 | 28.19312 | 126.08261 | 37036 ft | 480 kts | 45° |
| 2026-05-06 12:59 | 28.23548 | 126.14116 | 37033 ft | 480 kts | 45° |
| 2026-05-06 12:59 | 28.27746 | 126.19929 | 37036 ft | 479 kts | 45° |
| 2026-05-06 13:00 | 28.31964 | 126.25777 | 37030 ft | 479 kts | 45° |
| 2026-05-06 13:00 | 28.36177 | 126.31626 | 37033 ft | 478 kts | 45° |
| 2026-05-06 13:01 | 28.40386 | 126.37477 | 37035 ft | 478 kts | 45° |
| 2026-05-06 13:01 | 28.44585 | 126.43324 | 37037 ft | 478 kts | 45° |
| 2026-05-06 13:02 | 28.48784 | 126.49178 | 37035 ft | 477 kts | 45° |
| 2026-05-06 13:02 | 28.52975 | 126.55029 | 37036 ft | 477 kts | 45° |
| 2026-05-06 13:03 | 28.57162 | 126.60883 | 37036 ft | 477 kts | 45° |
| 2026-05-06 13:03 | 28.61347 | 126.66741 | 37037 ft | 477 kts | 45° |
| 2026-05-06 13:04 | 28.65524 | 126.72597 | 37038 ft | 477 kts | 45° |
| 2026-05-06 13:04 | 28.69702 | 126.78462 | 37038 ft | 477 kts | 45° |
| 2026-05-06 13:05 | 28.73877 | 126.84331 | 37038 ft | 476 kts | 45° |
| 2026-05-06 13:05 | 28.78044 | 126.90198 | 37044 ft | 476 kts | 45° |
| 2026-05-06 13:06 | 28.82205 | 126.96065 | 37046 ft | 476 kts | 46° |
| 2026-05-06 13:06 | 28.86365 | 127.01938 | 37042 ft | 476 kts | 46° |
| 2026-05-06 13:07 | 28.90525 | 127.07818 | 37043 ft | 476 kts | 46° |
| 2026-05-06 13:07 | 28.94677 | 127.13697 | 37046 ft | 475 kts | 46° |
| 2026-05-06 13:08 | 28.98827 | 127.19582 | 37046 ft | 475 kts | 46° |
| 2026-05-06 13:08 | 29.02970 | 127.25465 | 37040 ft | 475 kts | 46° |
| 2026-05-06 13:09 | 29.07110 | 127.31351 | 37035 ft | 475 kts | 46° |
| 2026-05-06 13:09 | 29.11253 | 127.37250 | 37043 ft | 475 kts | 46° |
| 2026-05-06 13:10 | 29.15388 | 127.43146 | 37043 ft | 475 kts | 46° |
| 2026-05-06 13:10 | 29.19520 | 127.49047 | 37047 ft | 475 kts | 47° |
| 2026-05-06 13:11 | 29.23654 | 127.54959 | 37047 ft | 476 kts | 47° |
| 2026-05-06 13:11 | 29.27789 | 127.60880 | 37049 ft | 476 kts | 47° |
| 2026-05-06 13:12 | 29.31921 | 127.66806 | 37045 ft | 476 kts | 47° |
| 2026-05-06 13:12 | 29.36022 | 127.72698 | 37049 ft | 476 kts | 47° |
| 2026-05-06 13:13 | 29.40148 | 127.78632 | 37046 ft | 476 kts | 47° |
| 2026-05-06 13:13 | 29.44274 | 127.84577 | 37058 ft | 476 kts | 47° |
| 2026-05-06 13:14 | 29.48400 | 127.90529 | 37050 ft | 477 kts | 47° |
| 2026-05-06 13:14 | 29.52526 | 127.96488 | 37052 ft | 477 kts | 47° |
| 2026-05-06 13:15 | 29.56653 | 128.02451 | 37050 ft | 477 kts | 47° |
| 2026-05-06 13:15 | 29.60784 | 128.08422 | 37054 ft | 477 kts | 47° |
| 2026-05-06 13:16 | 29.64910 | 128.14398 | 37053 ft | 478 kts | 48° |
| 2026-05-06 13:16 | 29.69038 | 128.20386 | 37057 ft | 478 kts | 48° |
| 2026-05-06 13:17 | 29.73167 | 128.26384 | 37057 ft | 478 kts | 48° |
| 2026-05-06 13:17 | 29.77296 | 128.32393 | 37060 ft | 479 kts | 48° |
| 2026-05-06 13:18 | 29.81429 | 128.38415 | 37056 ft | 479 kts | 48° |
| 2026-05-06 13:18 | 29.85562 | 128.44446 | 37058 ft | 480 kts | 49° |
| 2026-05-06 13:19 | 29.89700 | 128.50495 | 37058 ft | 481 kts | 49° |
| 2026-05-06 13:19 | 29.93847 | 128.56565 | 37059 ft | 482 kts | 49° |
| 2026-05-06 13:20 | 29.97971 | 128.62609 | 37062 ft | 483 kts | 49° |
| 2026-05-06 13:20 | 30.02126 | 128.68710 | 37060 ft | 484 kts | 49° |
| 2026-05-06 13:21 | 30.06281 | 128.74820 | 37059 ft | 485 kts | 49° |
| 2026-05-06 13:21 | 30.10446 | 128.80954 | 37063 ft | 486 kts | 49° |
| 2026-05-06 13:22 | 30.14619 | 128.87109 | 37060 ft | 487 kts | 49° |
| 2026-05-06 13:22 | 30.18797 | 128.93282 | 37063 ft | 488 kts | 50° |
| 2026-05-06 13:23 | 30.22984 | 128.99476 | 37064 ft | 490 kts | 50° |
| 2026-05-06 13:23 | 30.27181 | 129.05691 | 37067 ft | 491 kts | 50° |
| 2026-05-06 13:24 | 30.31390 | 129.11935 | 37065 ft | 492 kts | 50° |
| 2026-05-06 13:24 | 30.35603 | 129.18194 | 37063 ft | 494 kts | 50° |
| 2026-05-06 13:25 | 30.39821 | 129.24473 | 37067 ft | 495 kts | 50° |
| 2026-05-06 13:25 | 30.44053 | 129.30782 | 37068 ft | 496 kts | 50° |
| 2026-05-06 13:26 | 30.48295 | 129.37117 | 37070 ft | 498 kts | 51° |
| 2026-05-06 13:26 | 30.52521 | 129.43437 | 37068 ft | 500 kts | 51° |
| 2026-05-06 13:27 | 30.56787 | 129.49827 | 37069 ft | 502 kts | 51° |
| 2026-05-06 13:27 | 30.61062 | 129.56241 | 37073 ft | 503 kts | 51° |
| 2026-05-06 13:28 | 30.65348 | 129.62683 | 37070 ft | 505 kts | 51° |
| 2026-05-06 13:28 | 30.69651 | 129.69160 | 37074 ft | 507 kts | 51° |
| 2026-05-06 13:29 | 30.73963 | 129.75662 | 37074 ft | 509 kts | 51° |
| 2026-05-06 13:29 | 30.78292 | 129.82201 | 37075 ft | 511 kts | 52° |
| 2026-05-06 13:30 | 30.82640 | 129.88779 | 37078 ft | 514 kts | 52° |
| 2026-05-06 13:30 | 30.86753 | 129.95608 | 37086 ft | 517 kts | 58° |
| 2026-05-06 13:31 | 30.90529 | 130.02761 | 37084 ft | 520 kts | 59° |
| 2026-05-06 13:31 | 30.94298 | 130.09978 | 37081 ft | 523 kts | 59° |
| 2026-05-06 13:32 | 30.98088 | 130.17171 | 37082 ft | 526 kts | 59° |
| 2026-05-06 13:32 | 31.01935 | 130.24437 | 37084 ft | 528 kts | 59° |
| 2026-05-06 13:33 | 31.05796 | 130.31736 | 37084 ft | 530 kts | 59° |
| 2026-05-06 13:33 | 31.09691 | 130.39120 | 37086 ft | 531 kts | 59° |
| 2026-05-06 13:34 | 31.13538 | 130.46430 | 37090 ft | 533 kts | 59° |
| 2026-05-06 13:34 | 31.17418 | 130.53817 | 37098 ft | 535 kts | 59° |
| 2026-05-06 13:35 | 31.21309 | 130.61238 | 37099 ft | 536 kts | 59° |
| 2026-05-06 13:35 | 31.25203 | 130.68680 | 37093 ft | 537 kts | 59° |
| 2026-05-06 13:36 | 31.29101 | 130.76143 | 37097 ft | 538 kts | 60° |
| 2026-05-06 13:36 | 31.33001 | 130.83625 | 37097 ft | 539 kts | 60° |
| 2026-05-06 13:37 | 31.36901 | 130.91121 | 37104 ft | 540 kts | 60° |
| 2026-05-06 13:37 | 31.40809 | 130.98649 | 37112 ft | 542 kts | 60° |
| 2026-05-06 13:38 | 31.44721 | 131.06198 | 37111 ft | 543 kts | 60° |
| 2026-05-06 13:38 | 31.48634 | 131.13764 | 37114 ft | 543 kts | 60° |
| 2026-05-06 13:39 | 31.52544 | 131.21339 | 37105 ft | 544 kts | 60° |
| 2026-05-06 13:39 | 31.56456 | 131.28934 | 37114 ft | 545 kts | 60° |
| 2026-05-06 13:40 | 31.60369 | 131.36547 | 37116 ft | 545 kts | 60° |
| 2026-05-06 13:40 | 31.63622 | 131.42889 | 37110 ft | 546 kts | 60° |
| 2026-05-06 13:41 | 31.67535 | 131.50539 | 37099 ft | 547 kts | 60° |
| 2026-05-06 13:41 | 31.71445 | 131.58202 | 37108 ft | 547 kts | 60° |
| 2026-05-06 13:42 | 31.75355 | 131.65879 | 37106 ft | 548 kts | 60° |
| 2026-05-06 13:42 | 31.79260 | 131.73560 | 37108 ft | 548 kts | 61° |
| 2026-05-06 13:43 | 31.83169 | 131.81266 | 37105 ft | 549 kts | 61° |
| 2026-05-06 13:43 | 31.87074 | 131.88979 | 37108 ft | 549 kts | 61° |
| 2026-05-06 13:44 | 31.90954 | 131.96661 | 37109 ft | 550 kts | 61° |
| 2026-05-06 13:44 | 31.94883 | 132.04453 | 37105 ft | 550 kts | 61° |
| 2026-05-06 13:45 | 31.98757 | 132.12153 | 37101 ft | 551 kts | 61° |
| 2026-05-06 13:45 | 32.04605 | 132.23807 | 37101 ft | 551 kts | 61° |
| 2026-05-06 13:46 | 32.08503 | 132.31593 | 37100 ft | 551 kts | 61° |
| 2026-05-06 13:46 | 32.12933 | 132.38969 | 37105 ft | 553 kts | 49° |
| 2026-05-06 13:47 | 32.18369 | 132.45365 | 37099 ft | 552 kts | 38° |
| 2026-05-06 13:47 | 32.24380 | 132.50999 | 37098 ft | 552 kts | 36° |
| 2026-05-06 13:48 | 32.30423 | 132.56587 | 37098 ft | 552 kts | 36° |
| 2026-05-06 13:48 | 32.36434 | 132.62249 | 37099 ft | 552 kts | 37° |
| 2026-05-06 13:49 | 32.42424 | 132.67954 | 37099 ft | 553 kts | 37° |
| 2026-05-06 13:49 | 32.48364 | 132.73624 | 37097 ft | 553 kts | 37° |
| 2026-05-06 13:50 | 32.53900 | 132.78907 | 37091 ft | 552 kts | 37° |
| 2026-05-06 13:50 | 32.59882 | 132.84624 | 37100 ft | 552 kts | 37° |
| 2026-05-06 13:51 | 32.65859 | 132.90347 | 37101 ft | 552 kts | 37° |
| 2026-05-06 13:51 | 32.71825 | 132.96082 | 37099 ft | 552 kts | 38° |
| 2026-05-06 13:52 | 32.77276 | 133.02527 | 37093 ft | 554 kts | 49° |
| 2026-05-06 13:52 | 32.81840 | 133.09909 | 37103 ft | 554 kts | 56° |
| 2026-05-06 13:53 | 32.86217 | 133.17465 | 37105 ft | 555 kts | 56° |
| 2026-05-06 13:53 | 32.90614 | 133.24945 | 37109 ft | 556 kts | 55° |
| 2026-05-06 13:54 | 32.95076 | 133.32461 | 37107 ft | 556 kts | 55° |
| 2026-05-06 13:54 | 32.99537 | 133.39992 | 37110 ft | 556 kts | 55° |
| 2026-05-06 13:55 | 33.03993 | 133.47540 | 37108 ft | 557 kts | 55° |
| 2026-05-06 13:55 | 33.08437 | 133.55101 | 37110 ft | 557 kts | 55° |
| 2026-05-06 13:56 | 33.12875 | 133.62675 | 37112 ft | 557 kts | 55° |
| 2026-05-06 13:56 | 33.17307 | 133.70252 | 37113 ft | 557 kts | 55° |
| 2026-05-06 13:57 | 33.21737 | 133.77840 | 37120 ft | 557 kts | 55° |
| 2026-05-06 13:57 | 33.26162 | 133.85435 | 37122 ft | 557 kts | 55° |
| 2026-05-06 13:58 | 33.30584 | 133.93039 | 37124 ft | 557 kts | 55° |
| 2026-05-06 13:58 | 33.35002 | 134.00645 | 37126 ft | 557 kts | 55° |
| 2026-05-06 13:59 | 33.39420 | 134.08260 | 37133 ft | 557 kts | 55° |
| 2026-05-06 13:59 | 33.42973 | 134.14400 | 37124 ft | 557 kts | 56° |
| 2026-05-06 14:00 | 33.45523 | 134.18812 | 36982 ft | 549 kts | 55° |
| 2026-05-06 14:00 | 33.47663 | 134.22518 | 36549 ft | 532 kts | 56° |
| 2026-05-06 14:00 | 33.49728 | 134.26113 | 36091 ft | 514 kts | 56° |
| 2026-05-06 14:01 | 33.51724 | 134.29602 | 35504 ft | 502 kts | 56° |
| 2026-05-06 14:01 | 33.53657 | 134.32986 | 34821 ft | 495 kts | 56° |
| 2026-05-06 14:01 | 33.55595 | 134.36377 | 34139 ft | 491 kts | 56° |
| 2026-05-06 14:01 | 33.57522 | 134.39748 | 33368 ft | 488 kts | 54° |
| 2026-05-06 14:02 | 33.59756 | 134.42761 | 32584 ft | 480 kts | 34° |
| 2026-05-06 14:02 | 33.62543 | 134.44817 | 31874 ft | 464 kts | 17° |
| 2026-05-06 14:02 | 33.65544 | 134.46022 | 31176 ft | 446 kts | 3° |
| 2026-05-06 14:02 | 33.68549 | 134.46337 | 30478 ft | 425 kts | 350° |
| 2026-05-06 14:03 | 33.71483 | 134.46264 | 29745 ft | 419 kts | 351° |
| 2026-05-06 14:03 | 33.74386 | 134.46202 | 28930 ft | 413 kts | 351° |
| 2026-05-06 14:03 | 33.77232 | 134.46154 | 28020 ft | 406 kts | 352° |
| 2026-05-06 14:03 | 33.80027 | 134.46119 | 27114 ft | 398 kts | 353° |
| 2026-05-06 14:04 | 33.82774 | 134.46093 | 26246 ft | 390 kts | 354° |
| 2026-05-06 14:04 | 33.85465 | 134.46072 | 25401 ft | 383 kts | 355° |
| 2026-05-06 14:04 | 33.88101 | 134.46053 | 24597 ft | 375 kts | 355° |
| 2026-05-06 14:04 | 33.90689 | 134.46036 | 23783 ft | 368 kts | 356° |
| 2026-05-06 14:05 | 33.93227 | 134.46020 | 22862 ft | 361 kts | 356° |
| 2026-05-06 14:05 | 33.95732 | 134.46004 | 22301 ft | 360 kts | 357° |
| 2026-05-06 14:05 | 33.98245 | 134.45986 | 21777 ft | 364 kts | 357° |
| 2026-05-06 14:05 | 34.00810 | 134.45967 | 21282 ft | 374 kts | 357° |
| 2026-05-06 14:06 | 34.03476 | 134.45948 | 20757 ft | 393 kts | 357° |
| 2026-05-06 14:06 | 34.06318 | 134.45926 | 20192 ft | 422 kts | 358° |
| 2026-05-06 14:06 | 34.09293 | 134.45907 | 19567 ft | 430 kts | 358° |
| 2026-05-06 14:06 | 34.12281 | 134.45893 | 18954 ft | 429 kts | 358° |
| 2026-05-06 14:07 | 34.15259 | 134.45879 | 18347 ft | 426 kts | 358° |
| 2026-05-06 14:07 | 34.18215 | 134.45862 | 17673 ft | 423 kts | 358° |
| 2026-05-06 14:07 | 34.21139 | 134.45845 | 17063 ft | 419 kts | 358° |
| 2026-05-06 14:07 | 34.24035 | 134.45850 | 16468 ft | 409 kts | 1° |
| 2026-05-06 14:08 | 34.26797 | 134.46559 | 15897 ft | 408 kts | 20° |
| 2026-05-06 14:08 | 34.29233 | 134.48266 | 15365 ft | 405 kts | 38° |
| 2026-05-06 14:08 | 34.31314 | 134.50510 | 14843 ft | 399 kts | 41° |
| 2026-05-06 14:08 | 34.33351 | 134.52777 | 14308 ft | 397 kts | 42° |
| 2026-05-06 14:09 | 34.35382 | 134.55037 | 13734 ft | 396 kts | 42° |
| 2026-05-06 14:09 | 34.37413 | 134.57282 | 13145 ft | 394 kts | 41° |
| 2026-05-06 14:09 | 34.39440 | 134.59509 | 12591 ft | 392 kts | 41° |
| 2026-05-06 14:09 | 34.41494 | 134.61756 | 12045 ft | 389 kts | 41° |
| 2026-05-06 14:10 | 34.43459 | 134.63901 | 11496 ft | 386 kts | 41° |
| 2026-05-06 14:10 | 34.45444 | 134.66065 | 11160 ft | 378 kts | 41° |
| 2026-05-06 14:10 | 34.47363 | 134.68159 | 11077 ft | 363 kts | 41° |
| 2026-05-06 14:10 | 34.49206 | 134.70170 | 10993 ft | 350 kts | 41° |
| 2026-05-06 14:11 | 34.50955 | 134.72080 | 10904 ft | 337 kts | 41° |
| 2026-05-06 14:11 | 34.52658 | 134.73941 | 10759 ft | 327 kts | 41° |
| 2026-05-06 14:11 | 34.54331 | 134.75770 | 10547 ft | 320 kts | 41° |
| 2026-05-06 14:11 | 34.55977 | 134.77569 | 10235 ft | 318 kts | 41° |
| 2026-05-06 14:12 | 34.57619 | 134.79365 | 9861 ft | 318 kts | 41° |
| 2026-05-06 14:12 | 34.59236 | 134.81135 | 9735 ft | 308 kts | 41° |
| 2026-05-06 14:12 | 34.60671 | 134.82998 | 9402 ft | 300 kts | 59° |
| 2026-05-06 14:12 | 34.61362 | 134.85343 | 9108 ft | 295 kts | 83° |
| 2026-05-06 14:13 | 34.61409 | 134.87837 | 8649 ft | 297 kts | 92° |
| 2026-05-06 14:13 | 34.61331 | 134.90341 | 8288 ft | 296 kts | 93° |
| 2026-05-06 14:13 | 34.61260 | 134.92837 | 7941 ft | 296 kts | 92° |
| 2026-05-06 14:13 | 34.61200 | 134.95322 | 7628 ft | 294 kts | 92° |
| 2026-05-06 14:14 | 34.61146 | 134.97750 | 7343 ft | 292 kts | 92° |
| 2026-05-06 14:14 | 34.61094 | 135.00209 | 7030 ft | 290 kts | 92° |
| 2026-05-06 14:14 | 34.61045 | 135.02531 | 7001 ft | 278 kts | 92° |
| 2026-05-06 14:14 | 34.60996 | 135.04856 | 6993 ft | 274 kts | 92° |
| 2026-05-06 14:15 | 34.60947 | 135.07162 | 6995 ft | 274 kts | 92° |
| 2026-05-06 14:15 | 34.60897 | 135.09474 | 6996 ft | 274 kts | 92° |
| 2026-05-06 14:15 | 34.60847 | 135.11792 | 6997 ft | 275 kts | 92° |
| 2026-05-06 14:15 | 34.60797 | 135.14111 | 6996 ft | 275 kts | 92° |
| 2026-05-06 14:16 | 34.60745 | 135.16431 | 6998 ft | 276 kts | 92° |
| 2026-05-06 14:16 | 34.60693 | 135.18759 | 6994 ft | 274 kts | 93° |
| 2026-05-06 14:16 | 34.60293 | 135.20975 | 6987 ft | 268 kts | 119° |
| 2026-05-06 14:16 | 34.59283 | 135.22856 | 7006 ft | 269 kts | 126° |
| 2026-05-06 14:17 | 34.58230 | 135.24718 | 6993 ft | 262 kts | 125° |
| 2026-05-06 14:17 | 34.57236 | 135.26492 | 6835 ft | 256 kts | 125° |
| 2026-05-06 14:17 | 34.56240 | 135.28278 | 6397 ft | 254 kts | 125° |
| 2026-05-06 14:17 | 34.55258 | 135.30041 | 5827 ft | 250 kts | 125° |
| 2026-05-06 14:18 | 34.54297 | 135.31769 | 5273 ft | 244 kts | 125° |
| 2026-05-06 14:18 | 34.53356 | 135.33460 | 4741 ft | 239 kts | 126° |
| 2026-05-06 14:18 | 34.52442 | 135.35102 | 4226 ft | 233 kts | 126° |
| 2026-05-06 14:18 | 34.51542 | 135.36718 | 3667 ft | 230 kts | 126° |
| 2026-05-06 14:19 | 34.50525 | 135.38140 | 3181 ft | 219 kts | 149° |
| 2026-05-06 14:19 | 34.49133 | 135.38683 | 2754 ft | 205 kts | 180° |
| 2026-05-06 14:19 | 34.47768 | 135.38372 | 2517 ft | 201 kts | 204° |
| 2026-05-06 14:19 | 34.46623 | 135.37363 | 2296 ft | 208 kts | 233° |
| 2026-05-06 14:20 | 34.46155 | 135.35755 | 1994 ft | 205 kts | 272° |